Terminal Aerodrome Forecast
Issued by NWS Wilmington, OH

Current Version | Previous Version | Graphics & Text | Print | Product List | Glossary On
Versions: 1 2 3 4 5 6 7 8 9 10 11 12 13 14 15
000
FTUS41 KILN 260544
TAFILN
TAF
KILN 260544Z 2606/2706 15005KT P6SM FEW250
     FM261300 18010KT P6SM FEW250
     FM261700 18014G22KT P6SM FEW250
     FM270000 18012KT P6SM FEW250
     FM270400 16012KT P6SM FEW250 WS020/19045KT=

USA.gov is the U.S. government's official web portal to all federal, state and local government web resources and services.